createdAt,value
2018-06-18T00:03:01.137Z,14.78
2018-06-18T00:06:04.842Z,14.74
2018-06-18T00:09:11.249Z,14.69
2018-06-18T00:12:14.878Z,14.75
2018-06-18T00:15:18.435Z,14.74
2018-06-18T00:18:22.026Z,14.70
2018-06-18T00:21:25.571Z,14.60
2018-06-18T00:24:29.106Z,14.65
2018-06-18T00:27:32.631Z,14.67
2018-06-18T00:30:36.251Z,14.63
2018-06-18T00:33:39.817Z,14.64
2018-06-18T00:36:43.470Z,14.60
2018-06-18T00:39:47.095Z,14.57
2018-06-18T00:42:50.945Z,14.59
2018-06-18T00:45:54.470Z,14.57
2018-06-18T00:48:58.036Z,14.57
2018-06-18T00:52:01.727Z,14.58
2018-06-18T00:55:05.292Z,14.60
2018-06-18T00:58:08.868Z,14.62
2018-06-18T01:01:13.015Z,14.51
2018-06-18T01:04:16.545Z,14.53
2018-06-18T01:07:20.091Z,14.54
2018-06-18T01:10:23.852Z,14.55
2018-06-18T01:13:27.422Z,14.53
2018-06-18T01:16:30.970Z,14.56
2018-06-18T01:19:34.551Z,14.55
2018-06-18T01:22:40.438Z,14.58
2018-06-18T01:25:44.157Z,14.56
2018-06-18T01:28:47.748Z,14.56
2018-06-18T01:31:51.302Z,14.55
2018-06-18T01:34:54.960Z,14.51
2018-06-18T01:37:58.566Z,14.53
2018-06-18T01:41:02.125Z,14.51
2018-06-18T01:44:05.635Z,14.54
2018-06-18T01:47:09.227Z,14.53
2018-06-18T01:50:12.746Z,14.54
2018-06-18T01:53:16.408Z,14.55
2018-06-18T01:56:19.972Z,14.58
2018-06-18T01:59:23.515Z,14.56
2018-06-18T02:02:27.057Z,14.66
2018-06-18T02:05:30.713Z,14.63
2018-06-18T02:08:34.332Z,14.54
2018-06-18T02:11:38.023Z,14.56
2018-06-18T02:14:41.623Z,14.56
2018-06-18T02:17:45.184Z,14.50
2018-06-18T02:20:48.876Z,14.50
2018-06-18T02:23:52.563Z,14.52
2018-06-18T02:27:01.468Z,14.42
2018-06-18T02:31:12.118Z,14.40
2018-06-18T02:34:21.098Z,14.35
2018-06-18T02:37:30.004Z,14.24
2018-06-18T02:40:38.887Z,14.13
2018-06-18T02:43:42.703Z,14.11
2018-06-18T02:46:46.257Z,14.05
2018-06-18T02:49:49.782Z,13.99
2018-06-18T02:52:53.363Z,14.04
2018-06-18T02:55:57.048Z,14.05
2018-06-18T02:59:00.612Z,14.00
2018-06-18T03:02:04.216Z,14.03
2018-06-18T03:05:07.889Z,14.00
2018-06-18T03:08:11.502Z,13.95
2018-06-18T03:11:15.008Z,13.91
2018-06-18T03:14:18.647Z,13.96
2018-06-18T03:17:22.199Z,13.98
2018-06-18T03:20:31.002Z,14.10
2018-06-18T03:23:41.201Z,14.07
2018-06-18T03:26:49.927Z,14.13
2018-06-18T03:29:53.442Z,14.11
2018-06-18T03:32:57.177Z,14.10
2018-06-18T03:36:00.726Z,14.11
2018-06-18T03:39:06.502Z,14.18
2018-06-18T03:42:10.179Z,14.19
2018-06-18T03:45:19.474Z,14.26
2018-06-18T03:48:23.008Z,14.22
2018-06-18T03:51:26.532Z,14.19
2018-06-18T03:54:30.199Z,14.24
2018-06-18T03:57:33.808Z,14.24
2018-06-18T04:00:51.120Z,14.03
2018-06-18T04:04:02.182Z,14.06
2018-06-18T04:07:11.140Z,14.20
2018-06-18T04:10:20.475Z,14.39
2018-06-18T04:13:24.048Z,14.65
2018-06-18T04:16:27.575Z,15.01
2018-06-18T04:19:31.093Z,15.17
2018-06-18T04:22:34.629Z,15.54
2018-06-18T04:25:38.339Z,16.28
2018-06-18T04:28:41.868Z,15.89
2018-06-18T04:31:45.384Z,15.82
2018-06-18T04:34:56.050Z,15.65
2018-06-18T04:37:59.889Z,15.52
2018-06-18T04:41:03.465Z,15.14
2018-06-18T04:44:12.188Z,15.37
2018-06-18T04:47:21.181Z,15.36
2018-06-18T04:50:29.964Z,15.63
2018-06-18T04:53:33.588Z,15.72
2018-06-18T04:56:37.218Z,15.84
2018-06-18T04:59:44.513Z,15.87
2018-06-18T05:02:48.189Z,15.78
2018-06-18T05:05:51.838Z,15.96
2018-06-18T05:10:04.751Z,15.80
2018-06-18T05:13:08.325Z,15.69
2018-06-18T05:16:13.944Z,15.75
2018-06-18T05:19:17.600Z,15.97
2018-06-18T05:22:21.658Z,16.36
2018-06-18T05:25:25.426Z,16.17
2018-06-18T05:28:29.959Z,16.36
2018-06-18T05:31:33.528Z,16.31
2018-06-18T05:34:37.304Z,16.57
2018-06-18T05:37:52.635Z,16.58
2018-06-18T05:40:56.570Z,16.94
2018-06-18T05:44:00.243Z,17.06
2018-06-18T05:47:03.904Z,17.09
2018-06-18T05:50:07.599Z,16.92
2018-06-18T05:53:11.294Z,16.60
2018-06-18T05:56:14.898Z,16.63
2018-06-18T05:59:18.473Z,16.72
2018-06-18T06:02:21.969Z,16.86
2018-06-18T06:05:25.540Z,16.55
2018-06-18T06:08:29.161Z,16.61
2018-06-18T06:11:32.799Z,16.54
2018-06-18T06:14:36.392Z,16.31
2018-06-18T06:17:40.024Z,16.40
2018-06-18T06:20:47.829Z,16.32
2018-06-18T06:23:51.469Z,16.28
2018-06-18T06:26:55.053Z,16.12
2018-06-18T06:29:58.639Z,16.39
2018-06-18T06:33:02.254Z,16.34
2018-06-18T06:36:07.348Z,16.49
2018-06-18T06:39:11.505Z,16.37
2018-06-18T06:42:17.529Z,16.36
2018-06-18T06:45:21.481Z,16.59
2018-06-18T06:48:24.980Z,16.40
2018-06-18T06:51:28.704Z,16.17
2018-06-18T06:54:32.434Z,16.14
2018-06-18T06:57:35.967Z,16.00
2018-06-18T07:00:39.695Z,16.19
2018-06-18T07:03:43.360Z,16.16
2018-06-18T07:06:47.016Z,16.13
2018-06-18T07:09:50.624Z,16.05
2018-06-18T07:12:54.191Z,15.89
2018-06-18T07:15:57.760Z,16.13
2018-06-18T07:19:01.316Z,16.39
2018-06-18T07:22:04.971Z,16.26
2018-06-18T07:25:08.835Z,16.35
2018-06-18T07:28:12.376Z,16.61
2018-06-18T07:31:16.046Z,16.26
2018-06-18T07:34:19.626Z,16.39
2018-06-18T07:37:23.296Z,16.75
2018-06-18T07:40:26.920Z,16.56
2018-06-18T07:43:30.577Z,16.82
2018-06-18T07:46:34.140Z,17.22
2018-06-18T07:49:37.816Z,17.00
2018-06-18T07:52:41.491Z,17.26
2018-06-18T07:55:45.103Z,17.55
2018-06-18T07:58:48.801Z,17.79
2018-06-18T08:01:52.423Z,17.55
2018-06-18T08:04:56.081Z,17.32
2018-06-18T08:07:59.633Z,17.19
2018-06-18T08:11:03.191Z,17.44
2018-06-18T08:14:07.078Z,17.44
2018-06-18T08:17:10.681Z,17.97
2018-06-18T08:20:16.032Z,17.83
2018-06-18T08:23:19.636Z,18.39
2018-06-18T08:26:23.257Z,18.09
2018-06-18T08:29:26.870Z,18.00
2018-06-18T08:32:30.482Z,18.00
2018-06-18T08:35:34.026Z,18.26
2018-06-18T08:38:37.738Z,18.14
2018-06-18T08:41:41.302Z,18.42
2018-06-18T08:44:44.909Z,18.25
2018-06-18T08:47:48.503Z,18.13
2018-06-18T08:50:57.326Z,18.10
2018-06-18T08:54:06.274Z,18.10
2018-06-18T08:57:15.158Z,17.65
2018-06-18T09:00:23.903Z,17.92
2018-06-18T09:03:27.731Z,17.92
2018-06-18T09:06:31.397Z,17.95
2018-06-18T09:09:35.068Z,17.93
2018-06-18T09:12:38.687Z,18.39
2018-06-18T09:15:42.451Z,18.22
2018-06-18T09:18:46.153Z,18.39
2018-06-18T09:21:49.827Z,18.34
2018-06-18T09:24:53.729Z,18.25
2018-06-18T09:27:57.417Z,18.10
2018-06-18T09:31:01.062Z,18.18
2018-06-18T09:34:04.689Z,19.03
2018-06-18T09:37:08.527Z,19.65
2018-06-18T09:40:12.157Z,18.96
2018-06-18T09:43:16.017Z,18.99
2018-06-18T09:46:19.712Z,19.58
2018-06-18T09:49:28.629Z,19.63
2018-06-18T09:52:37.464Z,18.99
2018-06-18T09:55:46.349Z,19.24
2018-06-18T09:58:55.026Z,19.28
2018-06-18T10:01:58.654Z,19.47
2018-06-18T10:05:02.402Z,19.28
2018-06-18T10:08:06.014Z,19.39
2018-06-18T10:11:09.696Z,19.88
2018-06-18T10:14:16.061Z,20.25
2018-06-18T10:17:20.470Z,20.50
2018-06-18T10:20:24.052Z,21.00
2018-06-18T10:23:27.648Z,20.99
2018-06-18T10:26:31.289Z,21.02
2018-06-18T10:29:35.004Z,20.92
2018-06-18T10:32:43.872Z,20.76
2018-06-18T10:35:52.721Z,21.08
2018-06-18T10:39:01.451Z,20.64
2018-06-18T10:42:10.512Z,21.00
2018-06-18T10:45:14.297Z,21.00
2018-06-18T10:48:17.943Z,21.61
2018-06-18T10:51:21.599Z,21.10
2018-06-18T10:54:25.438Z,21.17
2018-06-18T10:57:29.033Z,21.07
2018-06-18T11:00:32.843Z,20.95
2018-06-18T11:03:36.532Z,20.96
2018-06-18T11:06:40.104Z,20.94
2018-06-18T11:09:43.777Z,21.10
2018-06-18T11:12:47.351Z,21.03
2018-06-18T11:15:51.081Z,21.22
2018-06-18T11:18:59.832Z,21.64
2018-06-18T11:26:21.954Z,21.32
2018-06-18T11:29:25.560Z,20.95
2018-06-18T11:32:29.239Z,21.03
2018-06-18T11:35:32.898Z,20.83
2018-06-18T11:38:36.591Z,21.42
2018-06-18T11:41:40.241Z,21.37
2018-06-18T11:44:44.113Z,22.05
2018-06-18T11:47:47.964Z,21.66
2018-06-18T11:50:51.751Z,21.82
2018-06-18T11:53:55.374Z,22.12
2018-06-18T11:56:59.023Z,21.32
2018-06-18T12:00:07.802Z,21.87
2018-06-18T12:03:16.720Z,22.52
2018-06-18T12:06:25.867Z,22.42
2018-06-18T12:09:31.248Z,22.67
2018-06-18T12:12:35.000Z,22.71
2018-06-18T12:15:38.702Z,21.95
2018-06-18T12:18:42.314Z,22.22
2018-06-18T12:21:45.903Z,22.33
2018-06-18T12:24:51.189Z,22.51
2018-06-18T12:27:54.864Z,22.75
2018-06-18T12:30:59.124Z,22.81
2018-06-18T12:34:04.354Z,22.83
2018-06-18T12:37:08.227Z,22.41
2018-06-18T12:40:12.028Z,22.55
2018-06-18T12:43:19.314Z,22.43
2018-06-18T12:46:28.186Z,22.71
2018-06-18T12:49:37.139Z,22.82
2018-06-18T12:52:46.038Z,22.52
2018-06-18T12:55:54.945Z,22.60
2018-06-18T12:58:58.624Z,22.26
2018-06-18T13:02:12.059Z,21.90
2018-06-18T13:05:15.790Z,21.66
2018-06-18T13:08:19.465Z,21.96
2018-06-18T13:11:23.223Z,22.31
2018-06-18T13:14:26.869Z,22.16
2018-06-18T13:17:30.627Z,21.95
2018-06-18T13:20:34.298Z,21.99
2018-06-18T13:23:37.938Z,22.01
2018-06-18T13:26:41.612Z,21.82
2018-06-18T13:29:45.225Z,21.90
2018-06-18T13:32:48.912Z,21.61
2018-06-18T13:35:52.591Z,21.58
2018-06-18T13:39:01.504Z,21.84
2018-06-18T13:42:10.424Z,21.88
2018-06-18T13:45:52.413Z,21.72
2018-06-18T13:48:57.030Z,21.57
2018-06-18T13:52:00.724Z,22.03
2018-06-18T13:55:04.381Z,22.37
2018-06-18T13:58:08.045Z,22.58
2018-06-18T14:01:12.764Z,22.54
2018-06-18T14:04:16.405Z,22.53
2018-06-18T14:07:20.235Z,22.85
2018-06-18T14:10:23.866Z,22.83
2018-06-18T14:13:27.505Z,22.73
2018-06-18T14:16:31.110Z,22.66
2018-06-18T14:19:40.044Z,22.81
2018-06-18T14:22:43.760Z,21.95
2018-06-18T14:25:47.654Z,22.06
2018-06-18T14:28:51.324Z,21.98
2018-06-18T14:31:55.956Z,21.88
2018-06-18T14:35:04.924Z,21.65
2018-06-18T14:38:13.772Z,21.90
2018-06-18T14:41:17.405Z,21.60
2018-06-18T14:44:21.259Z,21.55
2018-06-18T14:47:24.899Z,21.30
2018-06-18T14:50:28.581Z,21.58
2018-06-18T14:53:32.164Z,21.82
2018-06-18T14:56:36.636Z,21.61
2018-06-18T14:59:51.254Z,21.92
2018-06-18T15:02:54.925Z,21.84
2018-06-18T15:05:58.562Z,21.72
2018-06-18T15:09:02.264Z,22.05
2018-06-18T15:12:05.983Z,21.94
2018-06-18T15:15:14.817Z,21.91
2018-06-18T15:18:18.467Z,21.90
2018-06-18T15:21:22.072Z,21.38
2018-06-18T15:24:39.090Z,20.93
2018-06-18T15:27:42.758Z,20.91
2018-06-18T15:30:46.506Z,21.20
2018-06-18T15:33:50.054Z,21.03
2018-06-18T15:36:53.671Z,21.02
2018-06-18T15:39:57.320Z,20.89
2018-06-18T15:43:00.939Z,20.55
2018-06-18T15:46:04.817Z,20.59
2018-06-18T15:49:08.494Z,20.43
2018-06-18T15:52:12.076Z,20.36
2018-06-18T15:55:15.831Z,20.75
2018-06-18T15:58:19.482Z,20.43
2018-06-18T16:01:23.209Z,20.53
2018-06-18T16:04:27.636Z,20.66
2018-06-18T16:07:31.392Z,20.56
2018-06-18T16:10:35.230Z,20.60
2018-06-18T16:13:38.911Z,20.35
2018-06-18T16:16:42.576Z,20.42
2018-06-18T16:19:46.392Z,20.54
2018-06-18T16:22:50.240Z,20.61
2018-06-18T16:25:54.125Z,20.79
2018-06-18T16:28:57.750Z,20.69
2018-06-18T16:32:01.530Z,20.72
2018-06-18T16:35:05.309Z,20.89
2018-06-18T16:38:10.415Z,20.62
2018-06-18T16:41:14.077Z,20.84
2018-06-18T16:44:17.782Z,21.15
2018-06-18T16:47:21.492Z,20.91
2018-06-18T16:50:25.160Z,20.59
2018-06-18T16:53:28.813Z,20.56
2018-06-18T16:56:32.527Z,20.54
2018-06-18T16:59:36.221Z,20.18
2018-06-18T17:02:39.903Z,20.16
2018-06-18T17:05:43.545Z,20.11
2018-06-18T17:08:47.312Z,20.00
2018-06-18T17:11:50.976Z,20.06
2018-06-18T17:14:54.658Z,19.98
2018-06-18T17:17:58.320Z,20.07
2018-06-18T17:21:01.931Z,20.18
2018-06-18T17:24:05.888Z,20.26
2018-06-18T17:27:09.512Z,19.98
2018-06-18T17:30:13.281Z,20.14
2018-06-18T17:33:16.947Z,20.24
2018-06-18T17:36:20.646Z,20.22
2018-06-18T17:39:24.340Z,20.18
2018-06-18T17:42:27.950Z,20.19
2018-06-18T17:45:31.616Z,20.36
2018-06-18T17:48:35.189Z,20.14
2018-06-18T17:51:38.865Z,20.00
2018-06-18T17:54:42.449Z,20.04
2018-06-18T17:57:46.287Z,20.02
2018-06-18T18:00:50.107Z,19.82
2018-06-18T18:03:54.157Z,19.75
2018-06-18T18:06:57.927Z,19.70
2018-06-18T18:10:01.567Z,19.67
2018-06-18T18:13:05.402Z,19.68
2018-06-18T18:16:09.243Z,19.60
2018-06-18T18:19:12.898Z,19.50
2018-06-18T18:22:16.498Z,19.59
2018-06-18T18:25:20.386Z,19.50
2018-06-18T18:28:24.063Z,19.43
2018-06-18T18:31:27.873Z,19.44
2018-06-18T18:34:31.552Z,19.45
2018-06-18T18:37:35.139Z,19.42
2018-06-18T18:40:38.871Z,19.48
2018-06-18T18:43:42.547Z,19.46
2018-06-18T18:46:46.369Z,19.40
2018-06-18T18:49:50.158Z,19.30
2018-06-18T18:52:53.883Z,19.42
2018-06-18T18:56:08.717Z,19.43
2018-06-18T18:59:17.492Z,19.45
2018-06-18T19:02:21.153Z,19.40
2018-06-18T19:05:24.773Z,19.48
2018-06-18T19:08:30.817Z,19.44
2018-06-18T19:11:34.665Z,19.36
2018-06-18T19:14:38.357Z,19.32
2018-06-18T19:17:42.040Z,19.33
2018-06-18T19:20:48.450Z,19.33
2018-06-18T19:23:52.319Z,19.45
2018-06-18T19:26:56.043Z,19.36
2018-06-18T19:29:59.739Z,19.32
2018-06-18T19:33:08.447Z,19.36
2018-06-18T19:36:12.092Z,19.32
2018-06-18T19:39:15.909Z,19.21
2018-06-18T19:42:19.672Z,19.23
2018-06-18T19:45:24.644Z,19.18
2018-06-18T19:48:47.467Z,19.16
2018-06-18T19:51:51.199Z,19.15
2018-06-18T19:55:03.335Z,18.94
2018-06-18T19:58:07.053Z,18.91
2018-06-18T20:01:10.822Z,18.80
2018-06-18T20:04:14.597Z,18.69
2018-06-18T20:07:19.164Z,18.56
2018-06-18T20:10:24.122Z,18.48
2018-06-18T20:13:27.844Z,18.39
2018-06-18T20:16:31.594Z,18.27
2018-06-18T20:19:35.359Z,18.20
2018-06-18T20:22:39.085Z,18.18
2018-06-18T20:25:46.215Z,18.14
2018-06-18T20:28:50.017Z,18.11
2018-06-18T20:31:53.752Z,18.09
2018-06-18T20:34:58.080Z,17.95
2018-06-18T20:38:01.780Z,17.94
2018-06-18T20:41:05.547Z,17.84
2018-06-18T20:44:24.269Z,17.83
2018-06-18T20:47:28.048Z,17.82
2018-06-18T20:50:31.781Z,17.83
2018-06-18T20:53:35.553Z,17.83
2018-06-18T20:56:39.224Z,17.83
2018-06-18T20:59:43.023Z,17.88
2018-06-18T21:02:46.794Z,17.90
2018-06-18T21:05:50.504Z,17.91
2018-06-18T21:08:54.225Z,17.92
2018-06-18T21:11:57.824Z,18.03
2018-06-18T21:15:01.688Z,18.08
2018-06-18T21:18:05.696Z,18.09
2018-06-18T21:21:09.438Z,18.08
2018-06-18T21:24:13.198Z,18.12
2018-06-18T21:27:16.951Z,18.12
2018-06-18T21:30:20.638Z,18.09
2018-06-18T21:33:24.388Z,18.13
2018-06-18T21:36:28.160Z,18.10
2018-06-18T21:39:31.738Z,18.03
2018-06-18T21:42:35.557Z,18.04
2018-06-18T21:45:39.280Z,17.90
2018-06-18T21:48:42.935Z,17.80
2018-06-18T21:51:46.645Z,17.69
2018-06-18T21:54:50.289Z,17.67
2018-06-18T21:57:54.089Z,17.59
2018-06-18T22:00:58.021Z,17.48
2018-06-18T22:04:01.646Z,17.46
2018-06-18T22:07:05.363Z,17.45
2018-06-18T22:10:09.110Z,17.44
2018-06-18T22:13:12.889Z,17.36
2018-06-18T22:16:16.745Z,17.35
2018-06-18T22:19:20.438Z,17.28
2018-06-18T22:22:24.219Z,17.23
2018-06-18T22:25:28.029Z,17.18
2018-06-18T22:28:35.199Z,17.14
2018-06-18T22:31:38.763Z,17.07
2018-06-18T22:34:42.540Z,17.04
2018-06-18T22:37:46.345Z,17.00
2018-06-18T22:40:49.985Z,16.90
2018-06-18T22:43:53.655Z,16.92
2018-06-18T22:46:57.256Z,16.91
2018-06-18T22:50:00.986Z,16.86
2018-06-18T22:53:04.845Z,16.79
2018-06-18T22:56:08.524Z,16.77
2018-06-18T22:59:12.271Z,16.77
2018-06-18T23:02:19.819Z,16.76
2018-06-18T23:05:25.714Z,16.66
2018-06-18T23:08:29.408Z,16.62
2018-06-18T23:11:33.053Z,16.58
2018-06-18T23:14:37.134Z,16.51
2018-06-18T23:17:40.951Z,16.45
2018-06-18T23:20:44.564Z,16.36
2018-06-18T23:23:48.313Z,16.29
2018-06-18T23:26:52.113Z,16.32
2018-06-18T23:29:55.809Z,16.28
2018-06-18T23:32:59.391Z,16.30
2018-06-18T23:36:03.041Z,16.29
2018-06-18T23:39:08.536Z,16.26
2018-06-18T23:42:12.296Z,16.19
2018-06-18T23:45:15.987Z,16.19
2018-06-18T23:48:19.664Z,16.12
2018-06-18T23:51:23.311Z,16.08
2018-06-18T23:54:27.112Z,16.05
2018-06-18T23:57:30.841Z,15.99
